Time;durP1;ratioP1;P1;durP2;ratioP2;P2;SDS_P1;SDS_P2;PMS_P1;PMS_P2;Temp;Humidity;BMP_temperature;BMP_pressure;BME280_temperature;BME280_humidity;BME280_pressure;Samples;Min_cycle;Max_cycle;Signal;HPM_P1;HPM_P2
2022/06/17 00:01:23;;;;;;;3.30;1.70;;;;;;;22.20;46.94;100671.88;5065850;28;20059;-50
2022/06/17 00:03:51;;;;;;;3.08;1.70;;;;;;;22.17;46.89;100665.84;5048450;28;20056;-51
2022/06/17 00:06:21;;;;;;;4.57;1.80;;;;;;;22.14;46.70;100660.69;5066396;28;20040;-50
2022/06/17 00:08:52;;;;;;;4.78;1.63;;;;;;;22.11;46.43;100668.72;5035269;28;20040;-52
2022/06/17 00:11:24;;;;;;;3.70;2.22;;;;;;;22.07;47.01;100660.97;5071916;28;20113;-51
2022/06/17 00:13:51;;;;;;;3.72;1.48;;;;;;;22.05;47.04;100661.91;5068998;28;20392;-49
2022/06/17 00:16:21;;;;;;;4.63;1.88;;;;;;;22.02;47.04;100656.78;5064931;28;20044;-49
2022/06/17 00:19:05;;;;;;;3.25;1.60;;;;;;;21.97;47.04;100659.63;5065855;28;20097;-50
2022/06/17 00:24:29;;;;;;;3.63;1.85;;;;;;;21.86;47.41;100656.56;5054465;27;20403;-50
2022/06/17 00:26:56;;;;;;;2.63;2.13;;;;;;;21.89;47.52;100656.44;5011973;28;20096;-51
2022/06/17 00:29:28;;;;;;;4.25;2.03;;;;;;;21.85;47.90;100665.38;5011083;28;20041;-50
2022/06/17 00:31:55;;;;;;;4.57;1.95;;;;;;;21.80;47.56;100655.88;5010731;28;20552;-48
2022/06/17 00:34:23;;;;;;;3.78;2.05;;;;;;;21.77;47.92;100653.38;5026233;28;20126;-54
2022/06/17 00:36:55;;;;;;;3.38;2.30;;;;;;;21.74;48.29;100656.13;5013373;28;20049;-56
2022/06/17 00:39:27;;;;;;;4.68;2.60;;;;;;;21.71;48.27;100648.31;5012971;28;20037;-49
2022/06/17 00:41:58;;;;;;;4.30;2.10;;;;;;;21.67;48.75;100646.72;5021168;28;21741;-50
2022/06/17 00:47:32;;;;;;;4.60;3.22;;;;;;;21.56;49.13;100640.09;5061706;28;21133;-56
2022/06/17 00:50:13;;;;;;;7.18;3.53;;;;;;;21.54;48.74;100646.34;5026873;28;20402;-46
2022/06/17 00:58:11;;;;;;;5.45;2.17;;;;;;;21.40;48.95;100639.84;5018454;28;20406;-49
2022/06/17 01:00:38;;;;;;;4.88;2.08;;;;;;;21.34;49.27;100637.44;4991935;28;20059;-49
2022/06/17 01:03:09;;;;;;;3.95;2.00;;;;;;;21.30;49.29;100641.09;4989732;28;20055;-51
2022/06/17 01:05:44;;;;;;;3.83;2.35;;;;;;;21.24;49.56;100636.94;4984137;28;20486;-55
2022/06/17 01:11:13;;;;;;;5.10;2.15;;;;;;;21.12;49.14;100635.63;4997942;28;20470;-52
2022/06/17 01:13:43;;;;;;;8.38;2.33;;;;;;;21.09;50.12;100629.59;4982358;28;20570;-52
2022/06/17 01:16:09;;;;;;;3.28;2.13;;;;;;;21.04;49.42;100625.38;4988465;28;20446;-49
2022/06/17 01:18:41;;;;;;;5.22;2.35;;;;;;;21.03;49.54;100618.41;4989041;28;20051;-52
2022/06/17 01:21:18;;;;;;;7.22;2.22;;;;;;;20.97;49.86;100613.34;4992432;28;20105;-52
2022/06/17 01:23:46;;;;;;;3.75;2.20;;;;;;;20.95;50.07;100617.81;4992710;28;20059;-53
2022/06/17 01:26:12;;;;;;;3.90;1.92;;;;;;;20.90;49.93;100619.75;4991148;28;20046;-54
2022/06/17 01:28:39;;;;;;;4.05;2.55;;;;;;;20.87;49.97;100619.88;4990929;28;20046;-52
2022/06/17 01:31:08;;;;;;;3.20;1.60;;;;;;;20.84;49.81;100609.44;4988047;28;20109;-53
2022/06/17 01:33:39;;;;;;;4.55;2.35;;;;;;;20.80;49.88;100609.53;4994932;28;20050;-56
2022/06/17 01:38:50;;;;;;;3.83;1.45;;;;;;;20.73;49.81;100608.06;5054365;28;20410;-56
2022/06/17 01:41:21;;;;;;;4.88;1.88;;;;;;;20.72;49.76;100598.44;5010185;28;20057;-55
2022/06/17 01:43:55;;;;;;;4.00;1.70;;;;;;;20.69;49.73;100593.28;5001818;28;20433;-54
2022/06/17 01:46:27;;;;;;;4.20;1.70;;;;;;;20.67;49.65;100587.25;5005893;28;20054;-48
2022/06/17 01:49:02;;;;;;;3.40;1.60;;;;;;;20.63;49.74;100570.69;5010020;28;20050;-56
2022/06/17 01:51:32;;;;;;;3.28;1.83;;;;;;;20.60;49.73;100576.06;5011852;28;20050;-52
2022/06/17 01:54:05;;;;;;;3.20;1.63;;;;;;;20.58;49.74;100563.88;5000368;28;20403;-51
2022/06/17 01:56:35;;;;;;;2.83;1.20;;;;;;;20.51;49.55;100561.47;5009504;28;20410;-51
2022/06/17 01:59:09;;;;;;;2.58;1.42;;;;;;;20.46;49.48;100570.44;5009552;28;20046;-55
2022/06/17 02:01:40;;;;;;;2.75;1.65;;;;;;;20.45;49.66;100571.34;5002474;28;20112;-53
2022/06/17 02:04:13;;;;;;;3.53;1.40;;;;;;;20.42;49.63;100577.56;4999849;28;20050;-54
2022/06/17 02:06:52;;;;;;;3.50;1.83;;;;;;;20.35;49.87;100570.81;5005826;28;20058;-51
2022/06/17 02:09:19;;;;;;;2.92;1.42;;;;;;;20.35;49.97;100571.69;4992952;28;20076;-54
2022/06/17 02:11:47;;;;;;;3.65;1.77;;;;;;;20.34;49.93;100574.38;5003088;28;20069;-56
2022/06/17 02:14:14;;;;;;;4.22;2.78;;;;;;;20.32;50.14;100578.81;5002707;28;20583;-51
2022/06/17 02:16:45;;;;;;;3.20;2.00;;;;;;;20.31;50.31;100579.72;5015347;28;20130;-51
2022/06/17 02:19:12;;;;;;;4.40;1.98;;;;;;;20.25;50.68;100589.56;5008575;28;20052;-50
2022/06/17 02:21:45;;;;;;;3.22;1.45;;;;;;;20.25;50.97;100586.94;5001928;28;20450;-52
2022/06/17 02:24:12;;;;;;;5.00;1.80;;;;;;;20.22;51.20;100581.78;5010575;28;20478;-48
2022/06/17 02:26:41;;;;;;;4.18;1.90;;;;;;;20.21;50.38;100585.31;5006596;28;20058;-51
2022/06/17 02:29:10;;;;;;;3.33;1.75;;;;;;;20.19;50.97;100576.59;5008275;28;20053;-51
2022/06/17 02:31:40;;;;;;;3.60;1.70;;;;;;;20.16;50.61;100580.22;5004158;28;20112;-52
2022/06/17 02:34:10;;;;;;;5.10;1.92;;;;;;;20.12;50.72;100575.97;5006784;28;20133;-53
2022/06/17 02:36:54;;;;;;;4.85;1.45;;;;;;;20.04;51.24;100570.97;5005657;28;20042;-53
2022/06/17 02:39:21;;;;;;;3.03;1.73;;;;;;;20.04;51.10;100573.59;5003797;28;20054;-51
2022/06/17 02:41:50;;;;;;;4.15;1.67;;;;;;;20.03;50.93;100566.63;4997992;28;20038;-47
2022/06/17 02:44:22;;;;;;;4.25;1.75;;;;;;;20.00;51.31;100574.59;5003904;28;20054;-49
2022/06/17 02:46:53;;;;;;;5.65;1.83;;;;;;;19.98;51.27;100579.03;5001957;28;20172;-53
2022/06/17 02:49:23;;;;;;;3.83;1.73;;;;;;;19.95;51.22;100579.13;4996731;28;20050;-53
2022/06/17 02:51:50;;;;;;;2.97;1.80;;;;;;;19.93;51.62;100582.72;4993330;28;20043;-52
2022/06/17 02:54:32;;;;;;;6.20;2.30;;;;;;;19.85;51.43;100569.84;4996953;28;20045;-53
2022/06/17 02:57:01;;;;;;;5.30;1.90;;;;;;;19.87;51.89;100570.66;4997935;28;20050;-49
2022/06/17 03:02:14;;;;;;;4.07;2.15;;;;;;;19.78;52.30;100574.44;5045906;27;20892;-53
2022/06/17 03:04:43;;;;;;;;;;;;;;;19.55;52.32;100569.94;5034373;28;20076;-48
2022/06/17 03:07:19;;;;;;;4.57;2.42;;;;;;;19.67;52.34;100559.03;5025017;28;19926;-58
2022/06/17 03:09:47;;;;;;;4.28;3.05;;;;;;;19.68;52.11;100554.63;5045317;28;20406;-51
2022/06/17 03:12:20;;;;;;;5.10;2.22;;;;;;;19.65;52.14;100561.72;5031324;28;20045;-49
2022/06/17 03:15:10;;;;;;;4.18;2.10;;;;;;;19.52;52.40;100553.34;5060649;28;20505;-53
2022/06/17 03:17:41;;;;;;;4.22;1.77;;;;;;;19.57;52.16;100547.97;5058475;28;20059;-52
2022/06/17 03:20:13;;;;;;;4.45;2.10;;;;;;;19.55;52.08;100549.78;5038395;28;20102;-55
2022/06/17 03:22:41;;;;;;;3.47;2.00;;;;;;;19.51;52.60;100538.50;5047570;28;20045;-49
2022/06/17 03:25:17;;;;;;;4.20;2.10;;;;;;;19.49;52.76;100539.47;5048015;28;20489;-50
2022/06/17 03:27:58;;;;;;;4.43;2.10;;;;;;;19.42;52.47;100541.41;5046204;28;21035;-51
2022/06/17 03:30:31;;;;;;;3.70;1.83;;;;;;;19.42;52.14;100537.97;5048798;28;20045;-53
2022/06/17 03:35:43;;;;;;;5.38;2.15;;;;;;;19.39;52.67;100549.44;5050887;28;20740;-50
2022/06/17 03:38:36;;;;;;;7.20;2.83;;;;;;;19.29;52.52;100529.59;5017388;28;20046;-53
2022/06/17 03:41:10;;;;;;;4.25;2.67;;;;;;;19.32;52.33;100530.34;5060173;28;20053;-58
2022/06/17 03:43:45;;;;;;;3.00;2.60;;;;;;;19.30;52.00;100528.69;5016986;28;20436;-54
2022/06/17 03:46:18;;;;;;;4.82;3.40;;;;;;;19.27;52.53;100532.28;5037175;28;20054;-50
2022/06/17 03:48:55;;;;;;;5.28;3.20;;;;;;;19.21;52.56;100538.56;5043262;28;20038;-49
2022/06/17 03:51:24;;;;;;;4.95;2.90;;;;;;;19.19;52.42;100540.41;5017254;28;20054;-51
2022/06/17 03:53:52;;;;;;;4.72;1.92;;;;;;;19.16;52.85;100543.13;5048769;28;20424;-53
2022/06/17 03:56:25;;;;;;;6.35;3.67;;;;;;;19.11;52.98;100545.00;5015804;28;20441;-49
2022/06/17 03:58:55;;;;;;;6.45;3.35;;;;;;;19.10;53.01;100552.03;5002825;28;20049;-52
2022/06/17 04:01:31;;;;;;;4.75;2.78;;;;;;;19.05;53.49;100551.28;5045904;28;20111;-53
2022/06/17 04:04:03;;;;;;;4.05;3.03;;;;;;;19.06;53.20;100552.13;5043435;28;20050;-50
2022/06/17 04:06:36;;;;;;;6.20;3.63;;;;;;;19.01;54.00;100542.63;5009438;28;20050;-51
2022/06/17 04:09:14;;;;;;;5.70;3.88;;;;;;;19.01;53.95;100544.41;5013635;28;21109;-48
2022/06/17 04:11:45;;;;;;;4.60;3.33;;;;;;;19.00;53.79;100543.56;5026622;28;20474;-54
2022/06/17 04:14:21;;;;;;;7.45;3.35;;;;;;;18.96;54.26;100547.19;5008070;28;20093;-53
2022/06/17 04:19:50;;;;;;;4.75;2.42;;;;;;;18.98;54.86;100534.84;5031047;28;20418;-54
2022/06/17 04:22:22;;;;;;;6.70;2.30;;;;;;;18.97;54.13;100541.00;5012229;28;20116;-51
2022/06/17 04:24:55;;;;;;;6.28;2.25;;;;;;;18.93;55.17;100536.75;5012325;28;20046;-51
2022/06/17 04:27:23;;;;;;;6.50;2.20;;;;;;;18.93;55.14;100541.16;5013585;28;20049;-55
2022/06/17 04:29:55;;;;;;;5.45;2.38;;;;;;;18.90;55.08;100531.59;5026444;28;20053;-51
2022/06/17 04:32:28;;;;;;;6.82;2.53;;;;;;;18.85;54.93;100528.28;5024783;28;20536;-50
2022/06/17 04:34:55;;;;;;;8.20;2.30;;;;;;;18.83;55.63;100535.31;5020060;28;20066;-49
2022/06/17 04:37:23;;;;;;;7.00;2.20;;;;;;;18.82;54.70;100534.47;5019047;28;20046;-52
2022/06/17 04:39:53;;;;;;;3.55;2.00;;;;;;;18.81;55.55;100531.88;5002038;28;20108;-51
2022/06/17 04:42:38;;;;;;;4.90;2.45;;;;;;;18.75;55.21;100539.00;5005263;28;20466;-55
2022/06/17 04:45:05;;;;;;;5.18;2.10;;;;;;;18.78;55.29;100537.22;5013599;28;20053;-51
2022/06/17 04:47:33;;;;;;;6.55;2.40;;;;;;;18.77;55.44;100530.25;5008675;28;20116;-55
2022/06/17 04:50:03;;;;;;;6.40;2.47;;;;;;;18.79;54.55;100534.56;4999212;28;20061;-51
2022/06/17 04:55:17;;;;;;;3.75;1.92;;;;;;;18.82;54.57;100525.72;5021007;28;20907;-51
2022/06/17 04:57:43;;;;;;;5.18;2.55;;;;;;;18.88;55.11;100529.03;5003462;28;20050;-50
2022/06/17 05:00:23;;;;;;;9.82;2.38;;;;;;;18.88;54.84;100534.28;5001584;28;20051;-48
2022/06/17 05:02:50;;;;;;;6.63;2.45;;;;;;;18.96;54.45;100536.69;5003268;28;20487;-50
2022/06/17 05:05:26;;;;;;;4.78;2.67;;;;;;;19.03;55.07;100532.09;5002893;28;20046;-52
2022/06/17 05:07:54;;;;;;;3.97;2.17;;;;;;;19.08;54.51;100529.38;5000035;28;20062;-57
2022/06/17 05:10:33;;;;;;;7.90;3.05;;;;;;;19.12;54.40;100531.00;5002835;28;20056;-54
2022/06/17 05:13:10;;;;;;;5.88;2.47;;;;;;;19.12;54.59;100531.00;5003208;28;20053;-51
2022/06/17 05:15:37;;;;;;;6.10;2.53;;;;;;;19.13;54.15;100527.47;4986236;28;20046;-51
2022/06/17 05:18:04;;;;;;;3.45;2.35;;;;;;;19.18;53.91;100530.78;5002551;28;20490;-53
2022/06/17 05:20:31;;;;;;;5.32;2.72;;;;;;;19.24;54.38;100535.84;4991900;28;20726;-51
2022/06/17 05:25:37;;;;;;;8.57;3.55;;;;;;;19.48;53.91;100533.34;5016451;28;20423;-51
2022/06/17 05:28:06;;;;;;;6.18;4.38;;;;;;;19.55;53.91;100533.16;5002717;28;20776;-51
2022/06/17 05:30:37;;;;;;;;;;;;;;;19.45;54.47;100535.25;5002033;28;20096;-50
2022/06/17 05:33:04;;;;;;;7.15;3.65;;;;;;;19.64;53.11;100538.09;5000410;28;19925;-49
2022/06/17 05:35:31;;;;;;;4.78;3.55;;;;;;;19.67;53.13;100540.63;5003445;28;20069;-49
2022/06/17 05:37:58;;;;;;;3.80;2.72;;;;;;;19.69;52.90;100546.69;5001772;28;20042;-47
2022/06/17 05:40:26;;;;;;;6.22;3.28;;;;;;;19.70;52.53;100553.69;5000099;28;20050;-52
2022/06/17 05:42:53;;;;;;;4.50;3.05;;;;;;;19.72;52.02;100562.34;5002907;28;20498;-57
2022/06/17 05:45:24;;;;;;;4.50;2.83;;;;;;;19.77;52.42;100560.47;5002178;28;20108;-50
2022/06/17 05:47:52;;;;;;;4.53;2.80;;;;;;;19.87;52.60;100565.41;4999466;28;20057;-51
2022/06/17 05:50:21;;;;;;;4.55;3.35;;;;;;;19.91;52.12;100567.00;5001464;28;20052;-52
2022/06/17 05:52:54;;;;;;;5.50;3.53;;;;;;;19.94;52.51;100566.03;5031292;28;20054;-51
2022/06/17 05:55:22;;;;;;;4.85;3.15;;;;;;;19.98;52.10;100563.28;5001708;28;20053;-53
2022/06/17 05:57:49;;;;;;;7.43;3.47;;;;;;;20.04;52.65;100573.59;5031871;28;20800;-50
2022/06/17 06:00:17;;;;;;;6.60;3.38;;;;;;;20.12;52.48;100561.94;5002267;28;20062;-53
2022/06/17 06:02:43;;;;;;;5.82;3.33;;;;;;;20.20;51.85;100561.69;4996212;28;20536;-52
2022/06/17 06:05:14;;;;;;;3.97;3.42;;;;;;;20.32;52.36;100560.41;4994735;28;20533;-54
2022/06/17 06:07:41;;;;;;;9.45;3.90;;;;;;;20.46;52.16;100555.50;4989205;28;20065;-52
2022/06/17 06:10:08;;;;;;;9.10;3.53;;;;;;;20.60;51.64;100564.69;4991764;28;20058;-50
2022/06/17 06:15:24;;;;;;;5.05;3.38;;;;;;;20.88;51.47;100563.66;5013300;28;20045;-48
2022/06/17 06:17:51;;;;;;;6.03;2.97;;;;;;;21.04;51.65;100549.00;5005077;28;20050;-50
2022/06/17 06:20:18;;;;;;;3.70;2.78;;;;;;;21.22;51.19;100546.59;5002281;28;20513;-52
2022/06/17 06:22:44;;;;;;;3.95;3.30;;;;;;;21.39;51.19;100539.78;5000633;28;20052;-51
2022/06/17 06:25:14;;;;;;;4.55;3.53;;;;;;;21.56;50.59;100545.22;4994117;28;20065;-54
2022/06/17 06:27:41;;;;;;;7.43;3.47;;;;;;;21.79;50.52;100547.84;4999607;28;20580;-54
2022/06/17 06:30:24;;;;;;;5.85;3.05;;;;;;;22.03;50.67;100553.88;4994783;28;20053;-50
2022/06/17 06:32:53;;;;;;;3.50;2.50;;;;;;;22.28;50.25;100552.78;4998901;28;20108;-49
2022/06/17 06:35:21;;;;;;;;;;;;;;;22.45;49.91;100548.53;5009726;28;20387;-54
2022/06/17 06:37:48;;;;;;;4.97;2.72;;;;;;;22.71;49.59;100546.53;4989961;28;19979;-50
2022/06/17 06:40:15;;;;;;;4.72;2.88;;;;;;;22.88;48.74;100548.41;4988864;28;20058;-49
2022/06/17 06:42:42;;;;;;;4.93;3.55;;;;;;;22.92;48.20;100546.47;4989760;28;20050;-50
2022/06/17 06:45:16;;;;;;;3.97;2.92;;;;;;;23.01;47.47;100524.91;4988599;28;20459;-53
2022/06/17 06:47:45;;;;;;;4.28;3.03;;;;;;;23.19;48.04;100532.88;4990802;28;20096;-53
2022/06/17 06:50:14;;;;;;;8.65;3.22;;;;;;;23.37;46.08;100528.50;4985261;28;20092;-51
2022/06/17 06:52:41;;;;;;;2.85;1.50;;;;;;;23.44;45.44;100522.00;4985787;28;20636;-54
2022/06/17 06:55:09;;;;;;;3.92;2.70;;;;;;;23.52;45.05;100524.28;4984090;28;20080;-56
2022/06/17 06:57:46;;;;;;;4.22;2.58;;;;;;;23.68;45.25;100518.22;4984165;28;20505;-51
2022/06/17 07:00:16;;;;;;;3.53;2.72;;;;;;;23.90;45.25;100522.41;4983164;28;20058;-50
2022/06/17 07:02:42;;;;;;;3.42;2.65;;;;;;;24.18;45.21;100523.66;4985098;28;20137;-53
2022/06/17 07:05:09;;;;;;;3.45;2.30;;;;;;;24.43;45.09;100519.69;4984574;28;20046;-52
2022/06/17 07:07:39;;;;;;;3.13;2.65;;;;;;;24.52;43.05;100517.41;4988033;28;20078;-55
2022/06/17 07:10:07;;;;;;;2.80;2.28;;;;;;;24.51;43.14;100523.66;4982208;28;20058;-50
2022/06/17 07:12:34;;;;;;;5.25;2.65;;;;;;;24.55;42.94;100513.72;4982943;28;20081;-55
2022/06/17 07:15:03;;;;;;;3.17;2.78;;;;;;;24.71;43.74;100518.19;4985077;28;20046;-53
2022/06/17 07:17:31;;;;;;;2.72;2.53;;;;;;;24.90;43.17;100507.47;4983108;28;20109;-54
2022/06/17 07:19:57;;;;;;;3.35;2.80;;;;;;;25.10;42.26;100509.00;4985986;28;20045;-55
2022/06/17 07:22:24;;;;;;;3.70;2.13;;;;;;;25.29;41.96;100492.88;4984227;28;20108;-55
2022/06/17 07:24:51;;;;;;;3.90;2.10;;;;;;;25.52;41.95;100492.47;4986389;28;20050;-55
2022/06/17 07:27:18;;;;;;;7.20;2.92;;;;;;;25.74;41.73;100485.94;4982954;28;20042;-53
2022/06/17 07:29:44;;;;;;;2.85;2.45;;;;;;;26.02;41.78;100484.25;4983295;28;20065;-54
2022/06/17 07:32:11;;;;;;;3.58;2.65;;;;;;;26.28;41.83;100493.28;4978750;28;20096;-47
2022/06/17 07:34:41;;;;;;;2.83;1.48;;;;;;;26.47;40.63;100478.03;4984489;28;21804;-51
2022/06/17 07:39:58;;;;;;;2.65;2.45;;;;;;;26.76;39.42;100470.00;4984501;28;20045;-51
2022/06/17 07:42:37;;;;;;;3.38;2.33;;;;;;;26.92;40.27;100468.03;4988919;28;20064;-50
2022/06/17 07:45:11;;;;;;;2.88;2.67;;;;;;;27.10;39.91;100459.84;4983973;28;20038;-55
2022/06/17 07:47:39;;;;;;;2.83;2.35;;;;;;;27.29;39.87;100464.78;4981756;28;20186;-50
2022/06/17 07:50:10;;;;;;;4.32;2.38;;;;;;;27.41;38.81;100463.13;4987591;28;20054;-54
2022/06/17 07:52:37;;;;;;;3.10;2.75;;;;;;;27.54;39.14;100447.19;4980233;28;20069;-56
2022/06/17 07:55:06;;;;;;;2.70;2.25;;;;;;;27.69;39.35;100450.63;4985711;28;20101;-56
2022/06/17 07:57:40;;;;;;;2.92;2.58;;;;;;;27.86;37.84;100445.91;4966982;28;20581;-54
2022/06/17 08:00:09;;;;;;;3.17;2.58;;;;;;;27.91;38.76;100453.59;4999781;28;20057;-48
2022/06/17 08:02:36;;;;;;;6.43;3.60;;;;;;;28.02;38.40;100450.16;4984201;28;20773;-54
2022/06/17 08:05:03;;;;;;;3.38;2.70;;;;;;;28.09;38.23;100446.13;4989831;28;20084;-51
2022/06/17 08:07:30;;;;;;;3.53;3.22;;;;;;;28.14;38.28;100448.47;4988007;28;20046;-52
2022/06/17 08:09:57;;;;;;;4.43;3.20;;;;;;;28.25;38.29;100455.69;4982888;28;20127;-50
2022/06/17 08:12:24;;;;;;;4.40;2.58;;;;;;;28.33;37.95;100448.88;4983374;28;20065;-51
2022/06/17 08:14:54;;;;;;;2.88;1.40;;;;;;;28.50;39.23;100443.31;4984295;28;20487;-51
2022/06/17 08:17:21;;;;;;;3.58;2.50;;;;;;;28.67;38.58;100440.25;4987351;28;20050;-54
2022/06/17 08:19:51;;;;;;;2.75;1.50;;;;;;;28.78;38.00;100435.94;4985297;28;20591;-51
2022/06/17 08:22:19;;;;;;;5.97;3.03;;;;;;;28.86;37.37;100441.56;4987410;28;20061;-55
2022/06/17 08:24:46;;;;;;;6.78;3.35;;;;;;;28.98;36.87;100443.31;4986925;28;20056;-52
2022/06/17 08:27:14;;;;;;;2.35;1.58;;;;;;;29.11;37.36;100429.09;4988703;28;20554;-51
2022/06/17 08:29:41;;;;;;;6.57;3.25;;;;;;;29.24;36.99;100419.19;4987430;28;20050;-49
2022/06/17 08:35:03;;;;;;;5.25;3.05;;;;;;;29.53;37.25;100422.41;4981838;28;20104;-52
2022/06/17 08:37:31;;;;;;;5.07;2.55;;;;;;;29.67;36.59;100414.19;4983051;28;20558;-48
2022/06/17 08:39:59;;;;;;;2.80;2.50;;;;;;;29.83;37.30;100421.88;4980749;28;20070;-53
2022/06/17 08:45:32;;;;;;;6.78;1.92;;;;;;;30.34;37.59;100429.50;5048384;27;20407;-52
2022/06/17 08:48:19;;;;;;;;;;;;;;;30.49;37.21;100430.09;5016641;28;20119;-52
2022/06/17 08:56:31;;;;;;;3.30;1.42;;;;;;;31.26;36.14;100424.69;5044518;27;20414;-54
2022/06/17 09:02:29;;;;;;;3.75;1.30;;;;;;;31.30;34.68;100416.28;5024369;28;20418;-55
2022/06/17 09:18:16;;;;;;;2.58;1.42;;;;;;;32.13;33.13;100411.06;5042565;28;20408;-49
2022/06/17 09:20:47;;;;;;;4.10;1.10;;;;;;;32.25;33.31;100419.84;5022708;28;20053;-50
2022/06/17 09:23:19;;;;;;;6.32;1.73;;;;;;;32.40;33.36;100423.84;5022332;28;20537;-51
2022/06/17 09:25:47;;;;;;;3.17;1.10;;;;;;;32.61;33.24;100420.22;5020949;28;20097;-46
2022/06/17 09:28:22;;;;;;;6.75;1.52;;;;;;;32.87;32.97;100413.44;5016960;28;20427;-44
2022/06/17 09:30:59;;;;;;;4.28;1.75;;;;;;;33.00;32.66;100405.13;5023066;28;20474;-53
2022/06/17 09:41:42;;;;;;;2.95;1.35;;;;;;;33.16;30.80;100407.25;5062004;28;20387;-45
2022/06/17 09:44:23;;;;;;;4.13;1.30;;;;;;;33.16;30.17;100401.88;5020988;28;20513;-45
2022/06/17 09:46:57;;;;;;;4.18;1.35;;;;;;;33.26;30.63;100402.69;5024829;28;20042;-49
2022/06/17 09:49:33;;;;;;;4.68;1.35;;;;;;;33.31;30.81;100400.44;5022587;28;20050;-46
2022/06/17 09:57:29;;;;;;;3.55;1.38;;;;;;;33.70;31.27;100387.91;5048413;28;20412;-51
2022/06/17 10:00:02;;;;;;;3.95;3.00;;;;;;;33.91;29.88;100394.88;5001433;28;20401;-52
2022/06/17 10:02:51;;;;;;;2.13;1.48;;;;;;;33.97;30.32;100384.38;5000607;28;20046;-46
2022/06/17 10:29:36;;;;;;;6.13;1.92;;;;;;;34.43;29.72;100388.06;5029019;27;20402;-48
2022/06/17 10:32:04;;;;;;;2.33;1.50;;;;;;;34.42;29.49;100383.69;5018859;28;20104;-46
2022/06/17 10:34:54;;;;;;;4.95;2.30;;;;;;;34.45;30.41;100375.34;5003326;28;20050;-51
2022/06/17 10:37:21;;;;;;;4.32;2.22;;;;;;;34.58;30.32;100370.41;5011735;28;20034;-54
2022/06/17 10:40:09;;;;;;;7.05;1.85;;;;;;;34.69;29.80;100360.44;5016319;28;20099;-52
2022/06/17 10:42:36;;;;;;;6.30;1.65;;;;;;;34.80;29.99;100362.91;5009654;28;20053;-47
2022/06/17 10:45:04;;;;;;;4.20;1.50;;;;;;;34.96;30.63;100361.31;5009412;28;20061;-50
2022/06/17 10:47:40;;;;;;;3.40;1.70;;;;;;;35.06;30.43;100351.31;5008875;28;20050;-51
2022/06/17 10:50:18;;;;;;;5.43;1.73;;;;;;;35.13;29.98;100357.72;5003160;28;20041;-49
2022/06/17 10:52:52;;;;;;;3.53;2.20;;;;;;;35.21;30.38;100364.19;5006400;28;20621;-53
2022/06/17 10:55:31;;;;;;;9.15;2.10;;;;;;;35.21;29.47;100366.88;4995160;28;20045;-50
2022/06/17 11:04:11;;;;;;;6.53;2.63;;;;;;;34.87;29.47;100358.59;5023441;28;20050;-52
2022/06/17 11:06:48;;;;;;;7.28;3.55;;;;;;;34.86;30.56;100356.03;5022902;28;20053;-55
2022/06/17 11:09:25;;;;;;;7.20;3.13;;;;;;;34.79;29.66;100363.91;5022600;28;20107;-54
2022/06/17 11:12:03;;;;;;;4.53;3.15;;;;;;;34.75;30.77;100365.22;5017390;28;20052;-49
2022/06/17 11:19:54;;;;;;;7.78;2.28;;;;;;;34.96;30.70;100329.03;5018732;28;20410;-53
2022/06/17 11:22:29;;;;;;;3.60;1.98;;;;;;;34.97;30.76;100330.72;5017171;28;20188;-51
2022/06/17 11:25:01;;;;;;;3.55;2.08;;;;;;;35.00;31.02;100338.47;5009029;28;20061;-53
2022/06/17 11:27:41;;;;;;;6.32;2.03;;;;;;;35.04;31.18;100337.16;5014195;28;20520;-53
2022/06/17 11:32:59;;;;;;;4.50;2.65;;;;;;;35.16;30.77;100328.84;5121212;27;20754;-52
2022/06/17 11:38:14;;;;;;;6.10;3.95;;;;;;;35.16;30.66;100323.47;5038568;27;20404;-54
2022/06/17 11:41:01;;;;;;;4.78;4.25;;;;;;;35.09;32.03;100323.25;5017640;28;20132;-53
2022/06/17 11:43:39;;;;;;;5.63;3.70;;;;;;;34.99;30.94;100323.34;5024713;28;20049;-50
2022/06/17 11:46:12;;;;;;;6.10;3.50;;;;;;;34.95;30.91;100327.34;5013875;28;20038;-49
2022/06/17 11:48:47;;;;;;;8.63;4.38;;;;;;;34.84;30.64;100326.59;5018698;28;20049;-52
2022/06/17 11:59:23;;;;;;;3.22;2.20;;;;;;;34.73;31.86;100300.81;5014066;28;21141;-49
2022/06/17 12:15:32;;;;;;;5.78;2.35;;;;;;;34.99;32.43;100285.69;5058776;27;20405;-53
2022/06/17 12:18:00;;;;;;;6.38;3.15;;;;;;;34.91;32.51;100288.31;5011631;28;20462;-51
2022/06/17 12:20:42;;;;;;;6.93;2.50;;;;;;;34.93;33.16;100291.69;5018806;28;20058;-48
2022/06/17 12:23:17;;;;;;;5.63;2.63;;;;;;;34.96;32.88;100280.63;5012390;28;20050;-56
2022/06/17 12:25:56;;;;;;;6.53;2.33;;;;;;;34.94;32.83;100298.75;5015298;28;20041;-46
2022/06/17 12:28:34;;;;;;;6.45;2.83;;;;;;;34.96;32.65;100288.69;5014078;28;20402;-53
2022/06/17 12:31:13;;;;;;;7.15;2.65;;;;;;;34.92;32.37;100290.00;5007286;28;20045;-47
2022/06/17 12:33:47;;;;;;;5.22;2.72;;;;;;;34.89;31.86;100284.94;5012583;28;20054;-53
2022/06/17 12:36:35;;;;;;;6.88;3.10;;;;;;;34.70;32.15;100276.06;5018494;28;20925;-51
2022/06/17 15:30:35;;;;;;;10.57;3.00;;;;;;;34.80;32.18;100212.25;5054077;27;20399;-49
2022/06/17 19:03:27;;;;;;;44.45;15.30;;;;;;;29.92;33.96;100260.09;5075650;27;20769;-50
2022/06/17 19:05:57;;;;;;;39.13;14.20;;;;;;;29.82;34.59;100253.81;5027390;28;20224;-47
2022/06/17 19:19:44;;;;;;;18.73;8.45;;;;;;;29.37;34.52;100261.72;5028601;28;20049;-47
2022/06/17 19:22:15;;;;;;;18.15;4.80;;;;;;;29.32;35.26;100257.72;5026482;28;20041;-49
2022/06/17 19:24:42;;;;;;;10.10;3.38;;;;;;;29.24;35.18;100261.84;5035824;28;20049;-48
2022/06/17 19:27:27;;;;;;;16.85;3.83;;;;;;;29.18;35.70;100262.31;5037749;28;20535;-44
2022/06/17 19:29:54;;;;;;;10.70;4.78;;;;;;;29.09;35.03;100273.72;5040418;28;20056;-46
2022/06/17 19:32:31;;;;;;;10.75;3.88;;;;;;;29.01;35.95;100271.66;5041456;28;20459;-51
2022/06/17 19:34:58;;;;;;;12.20;3.05;;;;;;;28.94;36.39;100275.75;5029889;28;20061;-50
2022/06/17 19:37:25;;;;;;;11.48;2.83;;;;;;;28.82;36.67;100283.69;5039992;28;20950;-46
2022/06/17 19:39:52;;;;;;;22.52;7.82;;;;;;;28.75;36.86;100287.78;5035359;28;20052;-47
2022/06/17 19:42:19;;;;;;;12.73;4.10;;;;;;;28.67;37.23;100285.69;5034724;28;20122;-45
2022/06/17 19:44:46;;;;;;;18.63;6.47;;;;;;;28.59;37.58;100277.44;5032516;28;20081;-48
2022/06/17 19:47:19;;;;;;;12.82;5.22;;;;;;;28.52;37.31;100286.84;5041557;28;20061;-47
2022/06/17 19:49:50;;;;;;;15.48;4.82;;;;;;;28.44;38.28;100290.94;5039968;28;20049;-47
2022/06/17 19:52:39;;;;;;;12.10;4.95;;;;;;;28.25;38.30;100291.44;5038886;28;20060;-48
2022/06/17 19:55:14;;;;;;;14.25;4.68;;;;;;;28.23;38.55;100291.56;5041206;28;20061;-47
2022/06/17 19:57:40;;;;;;;13.35;4.90;;;;;;;28.14;39.30;100294.91;5026691;28;20042;-47
2022/06/17 20:00:07;;;;;;;9.27;4.88;;;;;;;28.10;39.60;100304.09;5025437;28;20418;-50
2022/06/17 20:02:37;;;;;;;6.68;4.25;;;;;;;28.02;39.38;100312.59;5041488;28;20045;-50
2022/06/17 20:05:06;;;;;;;8.32;4.22;;;;;;;27.95;39.60;100311.34;5042621;28;20045;-48
2022/06/17 20:07:32;;;;;;;9.75;3.67;;;;;;;27.88;40.15;100315.41;5041627;28;20045;-47
2022/06/17 20:09:59;;;;;;;8.73;3.75;;;;;;;27.79;40.13;100327.59;5044340;28;20045;-48
2022/06/17 20:12:31;;;;;;;13.93;4.57;;;;;;;27.73;40.87;100322.69;5042998;28;20053;-48
2022/06/17 20:15:01;;;;;;;8.82;4.25;;;;;;;27.64;41.14;100329.50;5026352;28;20046;-50
2022/06/17 20:17:28;;;;;;;10.82;5.05;;;;;;;27.56;41.44;100327.38;5030103;28;20053;-46
2022/06/17 20:19:55;;;;;;;12.30;2.80;;;;;;;27.49;41.75;100331.41;5026380;28;20575;-49
2022/06/17 20:22:23;;;;;;;10.05;3.90;;;;;;;27.42;41.25;100331.84;5028676;28;20084;-47
2022/06/17 20:24:53;;;;;;;9.70;3.80;;;;;;;27.34;41.17;100336.84;5026449;28;20052;-45
2022/06/17 20:27:25;;;;;;;7.97;3.72;;;;;;;27.29;41.83;100336.31;5020329;28;20100;-47
2022/06/17 20:29:58;;;;;;;11.65;4.57;;;;;;;27.18;42.09;100334.38;5006241;28;20042;-47
2022/06/17 20:32:25;;;;;;;11.13;4.70;;;;;;;27.09;41.93;100335.88;5029610;28;20041;-50
2022/06/17 20:34:52;;;;;;;9.70;4.43;;;;;;;27.02;42.33;100337.25;5028576;28;20489;-44
2022/06/17 20:37:25;;;;;;;8.98;4.10;;;;;;;26.95;42.26;100345.59;5024503;28;20056;-47